Time;durP1;ratioP1;P1;durP2;ratioP2;P2;SDS_P1;SDS_P2;PMS_P1;PMS_P2;Temp;Humidity;BMP_temperature;BMP_pressure;BME280_temperature;BME280_humidity;BME280_pressure;Samples;Min_cycle;Max_cycle;Signal;HPM_P1;HPM_P2
2024/01/03 00:02:15;;;;;;;;;;;18.00;60.80;;;;;;7398360;19;1899;-74
2024/01/03 00:04:41;;;;;;;;;;;18.00;60.90;;;;;;7399157;19;2882;-75
2024/01/03 00:07:06;;;;;;;;;;;18.00;60.90;;;;;;7401788;19;1847;-74
2024/01/03 00:09:32;;;;;;;;;;;17.90;61.20;;;;;;7398821;19;2769;-74
2024/01/03 00:11:57;;;;;;;;;;;18.00;61.20;;;;;;7399321;19;2733;-74
2024/01/03 00:14:25;;;;;;;;;;;17.90;61.20;;;;;;7401245;19;1592;-75
2024/01/03 00:16:50;;;;;;;;;;;17.90;61.30;;;;;;7400295;19;1498;-74
2024/01/03 00:19:16;;;;;;;;;;;17.80;60.90;;;;;;7398412;19;3087;-74
2024/01/03 00:21:42;;;;;;;;;;;17.80;61.10;;;;;;7398498;19;1420;-74
2024/01/03 00:24:08;;;;;;;;;;;17.80;61.20;;;;;;7402267;19;1565;-74
2024/01/03 00:26:33;;;;;;;;;;;17.80;61.20;;;;;;7397193;19;3090;-74
2024/01/03 00:28:59;;;;;;;;;;;17.80;61.60;;;;;;7397008;19;1858;-75
2024/01/03 00:31:30;;;;;;;;;;;17.70;61.50;;;;;;7399389;19;1393;-74
2024/01/03 00:33:56;;;;;;;;;;;17.70;61.40;;;;;;7398783;19;2875;-75
2024/01/03 00:36:21;;;;;;;;;;;17.70;61.40;;;;;;7398517;19;1502;-74
2024/01/03 00:38:47;;;;;;;;;;;17.70;61.40;;;;;;7400430;19;1531;-75
2024/01/03 00:41:12;;;;;;;;;;;17.70;61.60;;;;;;7396360;19;2913;-75
2024/01/03 00:43:38;;;;;;;;;;;17.60;61.40;;;;;;7400388;19;1547;-75
2024/01/03 00:46:04;;;;;;;;;;;17.60;61.50;;;;;;7397271;19;1764;-75
2024/01/03 00:48:29;;;;;;;;;;;17.60;61.70;;;;;;7393686;19;3799;-75
2024/01/03 00:50:55;;;;;;;;;;;17.60;61.60;;;;;;7400830;19;1956;-75
2024/01/03 00:53:20;;;;;;;;;;;17.60;61.80;;;;;;7398539;19;1190;-75
2024/01/03 00:55:46;;;;;;;;;;;17.50;61.70;;;;;;7396600;19;2888;-75
2024/01/03 00:58:11;;;;;;;;;;;17.50;61.90;;;;;;7399026;19;1379;-75
2024/01/03 01:00:37;;;;;;;;;;;17.50;61.60;;;;;;7399352;19;1748;-76
2024/01/03 01:03:02;;;;;;;;;;;17.50;62.80;;;;;;7396385;19;2968;-75
2024/01/03 01:05:28;;;;;;;;;;;17.50;61.90;;;;;;7397650;19;3204;-75
2024/01/03 01:07:53;;;;;;;;;;;17.50;62.30;;;;;;7397262;19;1883;-74
2024/01/03 01:10:19;;;;;;;;;;;17.40;62.60;;;;;;7394757;19;3795;-74
2024/01/03 01:12:44;;;;;;;;;;;17.40;63.70;;;;;;7397798;19;1554;-74
2024/01/03 01:15:10;;;;;;;;;;;17.40;63.80;;;;;;7397934;19;1390;-74
2024/01/03 01:17:36;;;;;;;;;;;17.40;62.80;;;;;;7398064;19;3709;-75
2024/01/03 01:20:01;;;;;;;;;;;17.40;62.80;;;;;;7395522;19;2841;-75
2024/01/03 01:22:27;;;;;;;;;;;17.30;63.50;;;;;;7399401;19;1572;-75
2024/01/03 01:24:52;;;;;;;;;;;17.30;63.50;;;;;;7397255;19;2822;-75
2024/01/03 01:27:18;;;;;;;;;;;17.10;64.20;;;;;;7394670;19;2150;-75
2024/01/03 01:29:43;;;;;;;;;;;17.10;63.40;;;;;;7394613;19;2862;-74
2024/01/03 01:32:09;;;;;;;;;;;17.10;63.40;;;;;;7395652;19;3083;-75
2024/01/03 01:34:34;;;;;;;;;;;17.10;63.40;;;;;;7396216;19;2803;-75
2024/01/03 01:37:00;;;;;;;;;;;17.10;63.40;;;;;;7399141;19;1572;-75
2024/01/03 01:39:25;;;;;;;;;;;17.10;63.30;;;;;;7396075;19;2863;-75
2024/01/03 01:41:50;;;;;;;;;;;17.00;63.30;;;;;;7396012;19;1408;-75
2024/01/03 01:44:16;;;;;;;;;;;17.00;63.30;;;;;;7398233;19;1620;-75
2024/01/03 01:46:41;;;;;;;;;;;17.00;63.30;;;;;;7395477;19;3542;-75
2024/01/03 01:49:07;;;;;;;;;;;17.00;63.30;;;;;;7395516;19;1864;-75
2024/01/03 01:51:33;;;;;;;;;;;17.00;63.20;;;;;;7397109;19;1557;-74
2024/01/03 01:53:59;;;;;;;;;;;17.00;63.30;;;;;;7396292;19;4497;-74
2024/01/03 01:56:24;;;;;;;;;;;16.90;63.20;;;;;;7396684;19;1527;-75
2024/01/03 01:58:49;;;;;;;;;;;16.90;63.10;;;;;;7399193;19;1541;-75
2024/01/03 02:01:17;;;;;;;;;;;16.90;63.20;;;;;;7396142;19;3084;-74
2024/01/03 02:03:42;;;;;;;;;;;16.90;63.20;;;;;;7395603;19;2985;-74
2024/01/03 02:06:08;;;;;;;;;;;16.90;63.20;;;;;;7397411;19;895;-75
2024/01/03 02:08:33;;;;;;;;;;;16.80;63.10;;;;;;7396582;19;3737;-74
2024/01/03 02:11:00;;;;;;;;;;;16.80;63.20;;;;;;7392637;19;1173;-75
2024/01/03 02:13:25;;;;;;;;;;;16.80;63.10;;;;;;7396194;19;1748;-75
2024/01/03 02:15:51;;;;;;;;;;;16.80;63.10;;;;;;7395667;19;2895;-75
2024/01/03 02:18:17;;;;;;;;;;;16.90;62.90;;;;;;7394550;19;905;-75
2024/01/03 02:20:42;;;;;;;;;;;16.90;62.60;;;;;;7397446;19;1392;-75
2024/01/03 02:23:07;;;;;;;;;;;17.00;62.40;;;;;;7395655;19;2862;-75
2024/01/03 02:25:33;;;;;;;;;;;17.00;62.10;;;;;;7396327;19;1478;-75
2024/01/03 02:27:58;;;;;;;;;;;17.20;61.70;;;;;;7397730;19;1846;-75
2024/01/03 02:30:24;;;;;;;;;;;17.30;61.30;;;;;;7396106;19;2993;-75
2024/01/03 02:32:49;;;;;;;;;;;17.40;60.90;;;;;;7395880;19;1478;-75
2024/01/03 02:35:15;;;;;;;;;;;17.50;60.50;;;;;;7395061;19;3843;-75
2024/01/03 02:37:41;;;;;;;;;;;17.60;60.10;;;;;;7396795;19;3121;-75
2024/01/03 02:40:06;;;;;;;;;;;17.80;59.90;;;;;;7393500;19;999;-75
2024/01/03 02:42:32;;;;;;;;;;;17.80;59.50;;;;;;7392349;19;3911;-75
2024/01/03 02:44:57;;;;;;;;;;;17.90;59.30;;;;;;7397382;19;3123;-75
2024/01/03 02:47:23;;;;;;;;;;;18.00;59.20;;;;;;7396929;19;1840;-75
2024/01/03 02:49:48;;;;;;;;;;;18.10;59.20;;;;;;7395440;19;2918;-74
2024/01/03 02:52:14;;;;;;;;;;;18.10;58.90;;;;;;7395768;19;3148;-75
2024/01/03 02:54:39;;;;;;;;;;;18.10;58.80;;;;;;7397135;19;1738;-75
2024/01/03 02:57:05;;;;;;;;;;;18.20;58.60;;;;;;7393349;19;6031;-75
2024/01/03 02:59:30;;;;;;;;;;;18.20;58.50;;;;;;7401338;19;2341;-75
2024/01/03 03:01:56;;;;;;;;;;;18.30;58.30;;;;;;7403362;19;1628;-75
2024/01/03 03:04:22;;;;;;;;;;;18.30;58.30;;;;;;7398148;19;3223;-74
2024/01/03 03:06:47;;;;;;;;;;;18.30;58.10;;;;;;7403047;19;3218;-75
2024/01/03 03:09:13;;;;;;;;;;;18.40;58.10;;;;;;7398364;19;1854;-75
2024/01/03 03:11:38;;;;;;;;;;;18.50;57.90;;;;;;7397965;19;3343;-74
2024/01/03 03:14:03;;;;;;;;;;;18.40;57.90;;;;;;7403388;19;2967;-74
2024/01/03 03:16:29;;;;;;;;;;;18.50;58.30;;;;;;7399975;19;1593;-75
2024/01/03 03:18:54;;;;;;;;;;;18.50;57.70;;;;;;7397780;19;4028;-75
2024/01/03 03:21:20;;;;;;;;;;;18.50;57.80;;;;;;7402470;19;3221;-75
2024/01/03 03:23:45;;;;;;;;;;;18.50;57.90;;;;;;7399431;19;1101;-75
2024/01/03 03:26:11;;;;;;;;;;;18.50;57.80;;;;;;7398248;19;2798;-75
2024/01/03 03:28:36;;;;;;;;;;;18.40;57.80;;;;;;7401603;19;2801;-75
2024/01/03 03:31:03;;;;;;;;;;;18.40;57.80;;;;;;7402715;19;1914;-75
2024/01/03 03:33:29;;;;;;;;;;;18.40;57.90;;;;;;7398430;19;4047;-74
2024/01/03 03:35:55;;;;;;;;;;;18.40;58.00;;;;;;7399097;19;943;-75
2024/01/03 03:38:20;;;;;;;;;;;18.30;57.90;;;;;;7398543;19;1417;-75
2024/01/03 03:40:45;;;;;;;;;;;18.20;58.00;;;;;;7396926;19;2980;-75
2024/01/03 03:43:11;;;;;;;;;;;18.20;58.10;;;;;;7403036;19;1727;-75
2024/01/03 03:45:36;;;;;;;;;;;18.20;58.20;;;;;;7398830;19;898;-75
2024/01/03 03:48:02;;;;;;;;;;;18.20;58.00;;;;;;7397959;19;3215;-75
2024/01/03 03:50:27;;;;;;;;;;;18.20;58.10;;;;;;7398479;19;1386;-75
2024/01/03 03:52:52;;;;;;;;;;;18.20;58.10;;;;;;7401541;19;1610;-75
2024/01/03 03:55:18;;;;;;;;;;;18.20;58.10;;;;;;7401232;19;3173;-75
2024/01/03 03:57:43;;;;;;;;;;;18.20;58.00;;;;;;7400677;19;1419;-76
2024/01/03 04:00:10;;;;;;;;;;;18.20;57.90;;;;;;7399195;19;4166;-75
2024/01/03 04:02:35;;;;;;;;;;;18.20;58.00;;;;;;7398838;19;2857;-75
2024/01/03 04:05:00;;;;;;;;;;;18.20;57.90;;;;;;7400409;19;1993;-74
2024/01/03 04:07:28;;;;;;;;;;;18.20;57.90;;;;;;7402244;19;1842;-75
2024/01/03 04:09:53;;;;;;;;;;;18.20;57.90;;;;;;7398144;19;3793;-75
2024/01/03 04:12:19;;;;;;;;;;;18.20;57.70;;;;;;7401759;19;1497;-75
2024/01/03 04:14:44;;;;;;;;;;;18.20;57.80;;;;;;7400426;19;1455;-75
2024/01/03 04:17:10;;;;;;;;;;;18.20;57.60;;;;;;7397000;19;3717;-74
2024/01/03 04:19:36;;;;;;;;;;;18.20;57.60;;;;;;7397993;19;3055;-75
2024/01/03 04:22:02;;;;;;;;;;;18.20;57.60;;;;;;7400614;19;2217;-75
2024/01/03 04:24:27;;;;;;;;;;;18.30;57.50;;;;;;7400240;19;4293;-75
2024/01/03 04:26:53;;;;;;;;;;;18.30;57.40;;;;;;7396679;19;855;-75
2024/01/03 04:29:18;;;;;;;;;;;18.30;57.40;;;;;;7396721;19;1841;-75
2024/01/03 04:31:44;;;;;;;;;;;18.30;57.20;;;;;;7397188;19;3925;-74
2024/01/03 04:34:09;;;;;;;;;;;18.30;57.20;;;;;;7397189;19;843;-75
2024/01/03 04:36:35;;;;;;;;;;;18.30;57.10;;;;;;7398607;19;808;-75
2024/01/03 04:39:00;;;;;;;;;;;18.40;57.20;;;;;;7397117;19;3193;-75
2024/01/03 04:41:26;;;;;;;;;;;18.40;57.00;;;;;;7400653;19;1642;-75
2024/01/03 04:43:51;;;;;;;;;;;18.30;57.00;;;;;;7396610;19;882;-75
2024/01/03 04:46:17;;;;;;;;;;;18.40;57.10;;;;;;7397013;19;3807;-75
2024/01/03 04:48:42;;;;;;;;;;;18.40;57.00;;;;;;7397252;19;1841;-75
2024/01/03 04:51:09;;;;;;;;;;;18.40;57.00;;;;;;7401429;19;1484;-75
2024/01/03 04:53:34;;;;;;;;;;;18.40;57.00;;;;;;7397608;19;2742;-74
2024/01/03 04:56:00;;;;;;;;;;;18.40;56.90;;;;;;7400907;19;1686;-75
2024/01/03 04:58:25;;;;;;;;;;;18.40;56.90;;;;;;7395389;19;1060;-75
2024/01/03 05:00:50;;;;;;;;;;;18.40;57.00;;;;;;7397668;19;2847;-75
2024/01/03 05:03:16;;;;;;;;;;;18.40;57.10;;;;;;7398893;19;3835;-74
2024/01/03 05:05:42;;;;;;;;;;;18.40;57.20;;;;;;7395444;19;4358;-75
2024/01/03 05:08:07;;;;;;;;;;;18.30;57.20;;;;;;7397722;19;3272;-75
2024/01/03 05:10:32;;;;;;;;;;;18.30;57.20;;;;;;7397712;19;1659;-75
2024/01/03 05:12:58;;;;;;;;;;;18.30;57.30;;;;;;7399032;19;1360;-75
2024/01/03 05:15:23;;;;;;;;;;;18.30;57.30;;;;;;7395319;19;3565;-75
2024/01/03 05:17:51;;;;;;;;;;;18.30;57.40;;;;;;7397899;19;3131;-75
2024/01/03 05:20:16;;;;;;;;;;;18.30;57.30;;;;;;7398028;19;1420;-75
2024/01/03 05:22:42;;;;;;;;;;;18.30;57.40;;;;;;7393575;19;3817;-75
2024/01/03 05:25:07;;;;;;;;;;;18.30;57.40;;;;;;7398219;19;1606;-75
2024/01/03 05:27:33;;;;;;;;;;;18.30;57.40;;;;;;7399133;19;1845;-75
2024/01/03 05:29:58;;;;;;;;;;;18.30;57.50;;;;;;7395841;19;3857;-75
2024/01/03 05:32:24;;;;;;;;;;;18.30;57.40;;;;;;7396639;19;1436;-75
2024/01/03 05:34:49;;;;;;;;;;;18.30;58.00;;;;;;7400070;19;1583;-75
2024/01/03 05:37:14;;;;;;;;;;;18.30;58.00;;;;;;7394916;19;3491;-75
2024/01/03 05:39:40;;;;;;;;;;;18.30;57.40;;;;;;7396292;19;2980;-75
2024/01/03 05:42:05;;;;;;;;;;;18.30;57.30;;;;;;7396865;19;1716;-75
2024/01/03 05:44:31;;;;;;;;;;;18.30;58.10;;;;;;7397480;19;4183;-75
2024/01/03 05:46:56;;;;;;;;;;;18.30;57.40;;;;;;7398762;19;1298;-75
2024/01/03 05:49:22;;;;;;;;;;;18.30;57.40;;;;;;7396716;19;1853;-75
2024/01/03 05:51:47;;;;;;;;;;;18.40;57.40;;;;;;7395226;19;2647;-75
2024/01/03 05:54:13;;;;;;;;;;;18.30;57.30;;;;;;7396309;19;1553;-75
2024/01/03 05:56:38;;;;;;;;;;;18.30;57.40;;;;;;7395047;19;1497;-75
2024/01/03 05:59:03;;;;;;;;;;;18.30;57.50;;;;;;7395196;19;2760;-75
2024/01/03 06:01:29;;;;;;;;;;;18.40;57.60;;;;;;7395555;19;1479;-75
2024/01/03 06:03:55;;;;;;;;;;;18.30;57.50;;;;;;7396430;19;1537;-74
2024/01/03 06:06:20;;;;;;;;;;;18.30;57.60;;;;;;7394766;19;2839;-75
2024/01/03 06:08:46;;;;;;;;;;;18.30;57.50;;;;;;7394665;19;1862;-75
2024/01/03 06:11:12;;;;;;;;;;;18.20;57.60;;;;;;7395033;19;2578;-75
2024/01/03 06:13:38;;;;;;;;;;;18.30;57.60;;;;;;7396695;19;5393;-75
2024/01/03 06:16:04;;;;;;;;;;;18.30;57.60;;;;;;7393693;19;3913;-75
2024/01/03 06:18:29;;;;;;;;;;;18.40;57.50;;;;;;7399319;19;2857;-75
2024/01/03 06:20:54;;;;;;;;;;;18.40;57.40;;;;;;7395453;19;2984;-75
2024/01/03 06:23:20;;;;;;;;;;;18.40;58.00;;;;;;7397989;19;1717;-75
2024/01/03 06:25:45;;;;;;;;;;;18.40;57.40;;;;;;7397311;19;1745;-75
2024/01/03 06:28:11;;;;;;;;;;;18.40;57.40;;;;;;7393571;19;2945;-75
2024/01/03 06:30:36;;;;;;;;;;;18.40;57.30;;;;;;7393548;19;1671;-75
2024/01/03 06:33:02;;;;;;;;;;;18.50;57.20;;;;;;7398323;19;1570;-74
2024/01/03 06:35:27;;;;;;;;;;;18.50;57.20;;;;;;7402952;19;2831;-76
2024/01/03 06:37:53;;;;;;;;;;;18.50;57.10;;;;;;7400624;19;852;-75
2024/01/03 06:40:19;;;;;;;;;;;18.50;57.10;;;;;;7403506;19;1663;-75
2024/01/03 06:42:44;;;;;;;;;;;18.50;57.10;;;;;;7401102;19;2942;-75
2024/01/03 06:45:09;;;;;;;;;;;18.60;57.00;;;;;;7402623;19;1657;-75
2024/01/03 06:47:35;;;;;;;;;;;18.60;57.00;;;;;;7401928;19;1854;-76
2024/01/03 06:50:00;;;;;;;;;;;18.50;57.00;;;;;;7401103;19;4331;-75
2024/01/03 06:52:26;;;;;;;;;;;18.50;57.00;;;;;;7404148;19;1410;-75
2024/01/03 06:54:51;;;;;;;;;;;18.50;57.10;;;;;;7402264;19;1533;-75
2024/01/03 06:57:17;;;;;;;;;;;18.50;57.20;;;;;;7401598;19;2912;-75
2024/01/03 06:59:42;;;;;;;;;;;18.40;57.40;;;;;;7401635;19;1617;-75
2024/01/03 07:02:07;;;;;;;;;;;18.40;57.60;;;;;;7398283;19;3408;-75
2024/01/03 07:04:33;;;;;;;;;;;18.40;57.60;;;;;;7403362;19;2674;-75
2024/01/03 07:06:58;;;;;;;;;;;18.40;57.50;;;;;;7400693;19;3510;-75
2024/01/03 07:09:24;;;;;;;;;;;18.40;57.50;;;;;;7397225;19;1852;-75
2024/01/03 07:11:50;;;;;;;;;;;18.40;57.50;;;;;;7401268;19;2861;-75
2024/01/03 07:14:15;;;;;;;;;;;18.40;57.50;;;;;;7400466;19;1218;-76
2024/01/03 07:16:41;;;;;;;;;;;18.40;57.40;;;;;;7402764;19;1576;-75
2024/01/03 07:19:06;;;;;;;;;;;18.40;57.50;;;;;;7401798;19;3539;-75
2024/01/03 07:21:32;;;;;;;;;;;18.40;57.60;;;;;;7402213;19;1613;-76
2024/01/03 07:23:58;;;;;;;;;;;18.40;57.50;;;;;;7399075;19;3594;-76
2024/01/03 07:26:23;;;;;;;;;;;18.40;57.50;;;;;;7402664;19;2842;-75
2024/01/03 07:28:49;;;;;;;;;;;18.30;57.50;;;;;;7398521;19;2572;-75
2024/01/03 07:31:14;;;;;;;;;;;18.30;57.70;;;;;;7401439;19;4460;-75
2024/01/03 07:33:40;;;;;;;;;;;18.20;57.90;;;;;;7402856;19;3089;-74
2024/01/03 07:36:06;;;;;;;;;;;18.20;58.00;;;;;;7403221;19;1692;-75
2024/01/03 07:38:31;;;;;;;;;;;18.20;57.90;;;;;;7401289;19;2909;-74
2024/01/03 07:40:57;;;;;;;;;;;18.20;57.90;;;;;;7402845;19;2854;-76
2024/01/03 07:43:23;;;;;;;;;;;18.20;57.70;;;;;;7400112;19;1513;-75
2024/01/03 07:45:48;;;;;;;;;;;18.30;57.80;;;;;;7396627;19;3026;-74
2024/01/03 07:48:14;;;;;;;;;;;18.10;57.90;;;;;;7400201;19;2986;-75
2024/01/03 07:50:39;;;;;;;;;;;18.10;58.00;;;;;;7399617;19;3337;-75
2024/01/03 07:53:07;;;;;;;;;;;18.10;58.00;;;;;;7399990;19;3277;-75
2024/01/03 07:55:32;;;;;;;;;;;18.20;58.00;;;;;;7403270;19;858;-76
2024/01/03 07:57:58;;;;;;;;;;;18.20;58.00;;;;;;7400101;19;1577;-75
2024/01/03 08:00:23;;;;;;;;;;;18.20;57.90;;;;;;7399938;19;3639;-75
2024/01/03 08:02:49;;;;;;;;;;;18.20;57.80;;;;;;7402476;19;2717;-75
2024/01/03 08:05:14;;;;;;;;;;;18.20;57.80;;;;;;7401319;19;3491;-75
2024/01/03 08:07:39;;;;;;;;;;;18.20;57.90;;;;;;7398277;19;3625;-75
2024/01/03 08:10:05;;;;;;;;;;;18.20;57.90;;;;;;7399704;19;1557;-75
2024/01/03 08:12:31;;;;;;;;;;;18.20;57.80;;;;;;7398298;19;4281;-75
2024/01/03 08:14:56;;;;;;;;;;;18.30;57.70;;;;;;7397019;19;4454;-74
2024/01/03 08:17:22;;;;;;;;;;;18.30;57.70;;;;;;7400133;19;2005;-75
2024/01/03 08:19:47;;;;;;;;;;;18.40;57.70;;;;;;7402066;19;1568;-75
2024/01/03 08:22:13;;;;;;;;;;;18.40;57.70;;;;;;7398046;19;2984;-75
2024/01/03 08:24:38;;;;;;;;;;;18.40;57.60;;;;;;7399824;19;3210;-74
2024/01/03 08:27:04;;;;;;;;;;;18.40;57.50;;;;;;7398241;19;2036;-74
2024/01/03 08:29:30;;;;;;;;;;;18.40;57.40;;;;;;7395932;19;2714;-74
2024/01/03 08:31:56;;;;;;;;;;;18.40;57.30;;;;;;7400067;19;4325;-74
2024/01/03 08:34:21;;;;;;;;;;;18.40;57.40;;;;;;7396640;19;974;-75
2024/01/03 08:36:46;;;;;;;;;;;18.40;57.40;;;;;;7396161;19;3274;-74
2024/01/03 08:39:12;;;;;;;;;;;18.40;57.40;;;;;;7401198;19;3211;-74
2024/01/03 08:41:37;;;;;;;;;;;18.40;57.50;;;;;;7400146;19;1645;-75
2024/01/03 08:44:05;;;;;;;;;;;18.40;57.40;;;;;;7396079;19;3086;-75
2024/01/03 08:46:40;;;;;;;;;;;18.40;57.30;;;;;;7398135;19;1538;-74
2024/01/03 08:49:06;;;;;;;;;;;18.40;57.30;;;;;;7397976;19;1853;-74
2024/01/03 08:51:31;;;;;;;;;;;18.40;57.20;;;;;;7396217;19;3867;-74
2024/01/03 08:53:57;;;;;;;;;;;18.50;57.20;;;;;;7400450;19;1466;-73
2024/01/03 08:56:23;;;;;;;;;;;18.50;57.10;;;;;;7385194;19;4614;-74
2024/01/03 08:58:49;;;;;;;;;;;18.50;57.10;;;;;;7391563;19;3673;-74
2024/01/03 09:01:16;;;;;;;;;;;18.50;57.00;;;;;;7389014;19;4006;-74
2024/01/03 09:03:41;;;;;;;;;;;18.50;57.10;;;;;;7395120;19;3546;-75
2024/01/03 09:06:06;;;;;;;;;;;18.50;56.90;;;;;;7395152;19;4772;-75
2024/01/03 09:08:32;;;;;;;;;;;18.60;57.10;;;;;;7396986;19;3367;-75
2024/01/03 09:11:02;;;;;;;;;;;18.50;57.00;;;;;;7397473;19;3580;-74
2024/01/03 09:13:31;;;;;;;;;;;18.50;56.90;;;;;;7400769;19;3011;-74
2024/01/03 09:15:56;;;;;;;;;;;18.60;57.00;;;;;;7400292;19;2837;-75
2024/01/03 09:18:22;;;;;;;;;;;18.60;56.80;;;;;;7395786;19;3753;-74
2024/01/03 09:20:47;;;;;;;;;;;18.60;56.80;;;;;;7395371;19;4404;-74
2024/01/03 09:23:12;;;;;;;;;;;18.60;56.80;;;;;;7399360;19;2723;-74
2024/01/03 09:25:38;;;;;;;;;;;18.70;56.80;;;;;;7400769;19;1501;-74
2024/01/03 09:28:03;;;;;;;;;;;18.60;56.70;;;;;;7395478;19;2532;-74
2024/01/03 09:30:29;;;;;;;;;;;18.60;56.70;;;;;;7395638;19;3919;-74
2024/01/03 09:32:54;;;;;;;;;;;18.70;57.40;;;;;;7400012;19;1832;-73
2024/01/03 09:35:20;;;;;;;;;;;18.90;56.20;;;;;;7394873;19;3616;-74
2024/01/03 09:37:45;;;;;;;;;;;19.10;55.90;;;;;;7396202;19;3065;-74
2024/01/03 09:40:11;;;;;;;;;;;19.30;55.30;;;;;;7394477;19;3557;-74
2024/01/03 09:42:37;;;;;;;;;;;19.50;54.90;;;;;;7392644;19;5275;-74
2024/01/03 09:45:02;;;;;;;;;;;19.60;54.60;;;;;;7395735;19;2648;-75
2024/01/03 09:47:28;;;;;;;;;;;19.70;54.50;;;;;;7395623;19;3985;-74
2024/01/03 09:49:53;;;;;;;;;;;19.80;54.30;;;;;;7395159;19;4234;-75
2024/01/03 09:52:19;;;;;;;;;;;19.80;54.10;;;;;;7397013;19;1539;-73
2024/01/03 09:54:44;;;;;;;;;;;19.90;54.10;;;;;;7395455;19;3574;-74
2024/01/03 09:57:09;;;;;;;;;;;19.90;53.90;;;;;;7392936;19;2887;-73
2024/01/03 09:59:35;;;;;;;;;;;19.90;53.70;;;;;;7397112;19;1759;-73
2024/01/03 10:02:01;;;;;;;;;;;20.00;53.70;;;;;;7392070;19;3472;-74
2024/01/03 10:04:26;;;;;;;;;;;20.10;53.80;;;;;;7392436;19;3234;-73
2024/01/03 10:06:57;;;;;;;;;;;20.10;53.80;;;;;;7392358;19;3919;-73
2024/01/03 10:09:23;;;;;;;;;;;20.00;53.70;;;;;;7390108;19;3920;-73
2024/01/03 10:11:51;;;;;;;;;;;20.10;53.60;;;;;;7390730;19;3624;-73
2024/01/03 10:14:17;;;;;;;;;;;20.10;53.50;;;;;;7393791;19;4141;-74
2024/01/03 10:16:46;;;;;;;;;;;20.10;53.60;;;;;;7396741;19;1614;-74
2024/01/03 10:19:11;;;;;;;;;;;20.10;53.50;;;;;;7391526;19;2760;-73
2024/01/03 10:21:38;;;;;;;;;;;20.20;53.50;;;;;;7391971;19;2749;-76
2024/01/03 10:24:05;;;;;;;;;;;20.40;53.30;;;;;;7395812;19;1587;-75
2024/01/03 10:26:31;;;;;;;;;;;20.50;53.00;;;;;;7391201;19;3836;-75
2024/01/03 10:29:12;;;;;;;;;;;20.60;52.70;;;;;;7392679;19;2180;-75
2024/01/03 10:31:38;;;;;;;;;;;20.70;52.60;;;;;;7392215;19;3201;-74
2024/01/03 10:34:04;;;;;;;;;;;20.80;52.40;;;;;;7396142;19;3080;-74
2024/01/03 10:36:34;;;;;;;;;;;20.80;52.20;;;;;;7397336;19;3775;-74
2024/01/03 10:39:00;;;;;;;;;;;20.90;52.20;;;;;;7393192;19;3456;-74
2024/01/03 10:41:26;;;;;;;;;;;21.00;52.10;;;;;;7394957;19;3216;-74
2024/01/03 10:43:51;;;;;;;;;;;21.00;51.90;;;;;;7395847;19;1449;-74
2024/01/03 10:46:17;;;;;;;;;;;21.00;51.90;;;;;;7391970;19;3862;-74
2024/01/03 10:48:43;;;;;;;;;;;21.10;51.90;;;;;;7393901;19;1846;-74
2024/01/03 10:51:08;;;;;;;;;;;21.10;51.90;;;;;;7394967;19;2036;-74
2024/01/03 10:53:35;;;;;;;;;;;21.00;51.90;;;;;;7391358;19;3143;-74
2024/01/03 10:56:02;;;;;;;;;;;21.10;51.90;;;;;;7394076;19;1581;-75
2024/01/03 10:58:27;;;;;;;;;;;21.10;52.40;;;;;;7393475;19;2804;-74
2024/01/03 11:01:11;;;;;;;;;;;21.10;51.80;;;;;;7392526;19;3818;-73
2024/01/03 11:03:39;;;;;;;;;;;21.20;51.80;;;;;;7394992;19;1446;-74
2024/01/03 11:06:07;;;;;;;;;;;21.20;51.70;;;;;;7392472;19;3340;-74
2024/01/03 11:08:52;;;;;;;;;;;21.30;51.60;;;;;;7390312;19;3905;-75
2024/01/03 11:11:36;;;;;;;;;;;21.30;51.50;;;;;;7390273;19;2859;-74
2024/01/03 11:14:20;;;;;;;;;;;21.30;51.60;;;;;;7391320;19;2709;-74
2024/01/03 11:16:46;;;;;;;;;;;21.30;51.40;;;;;;7394796;19;2769;-73
2024/01/03 11:19:11;;;;;;;;;;;21.40;51.40;;;;;;7397211;19;1403;-73
2024/01/03 11:21:37;;;;;;;;;;;21.30;51.40;;;;;;7405148;19;1705;-74
2024/01/03 11:24:04;;;;;;;;;;;21.30;51.40;;;;;;7396577;19;2907;-75
2024/01/03 11:26:48;;;;;;;;;;;21.40;51.30;;;;;;7391054;19;4481;-74
2024/01/03 11:29:32;;;;;;;;;;;22.00;51.00;;;;;;7395033;19;3874;-75
2024/01/03 11:31:58;;;;;;;;;;;22.60;49.60;;;;;;7396097;19;3009;-74
2024/01/03 11:34:36;;;;;;;;;;;22.90;48.80;;;;;;7401759;19;1660;-73
2024/01/03 11:37:02;;;;;;;;;;;23.00;48.60;;;;;;7399187;19;2041;-74
2024/01/03 11:39:41;;;;;;;;;;;23.00;48.60;;;;;;7398026;19;3037;-74
2024/01/03 11:42:06;;;;;;;;;;;23.10;48.60;;;;;;7398785;19;1788;-74
2024/01/03 11:44:32;;;;;;;;;;;23.20;48.20;;;;;;7402454;19;1752;-75
2024/01/03 11:47:06;;;;;;;;;;;23.40;48.10;;;;;;7397863;19;2797;-75
2024/01/03 11:49:32;;;;;;;;;;;23.30;47.80;;;;;;7395249;19;2964;-74
2024/01/03 11:51:57;;;;;;;;;;;23.40;47.80;;;;;;7399279;19;1701;-74
2024/01/03 11:54:26;;;;;;;;;;;23.40;47.80;;;;;;7397686;19;3062;-74
2024/01/03 11:56:56;;;;;;;;;;;23.40;47.70;;;;;;7399190;19;1720;-75
2024/01/03 11:59:24;;;;;;;;;;;23.50;47.50;;;;;;7399814;19;1455;-74
2024/01/03 12:01:59;;;;;;;;;;;23.50;47.30;;;;;;7396564;19;3378;-75
2024/01/03 12:04:25;;;;;;;;;;;23.60;47.40;;;;;;7399999;19;1601;-74
2024/01/03 12:06:55;;;;;;;;;;;23.60;47.40;;;;;;7400083;19;1689;-74
2024/01/03 12:09:20;;;;;;;;;;;23.60;47.20;;;;;;7397942;19;3021;-74
2024/01/03 12:11:46;;;;;;;;;;;23.70;47.00;;;;;;7395033;19;1952;-74
2024/01/03 12:14:15;;;;;;;;;;;23.70;46.90;;;;;;7399827;19;2831;-74
2024/01/03 12:16:53;;;;;;;;;;;23.70;47.00;;;;;;7398599;19;3004;-74
2024/01/03 12:19:30;;;;;;;;;;;23.70;47.10;;;;;;7397209;19;3195;-74
2024/01/03 12:21:56;;;;;;;;;;;23.70;46.90;;;;;;7400126;19;1980;-75
2024/01/03 12:24:22;;;;;;;;;;;23.80;46.80;;;;;;7396139;19;3764;-73
2024/01/03 12:26:50;;;;;;;;;;;23.80;46.80;;;;;;7395219;19;3998;-74
2024/01/03 12:29:16;;;;;;;;;;;23.80;46.60;;;;;;7394582;19;3817;-74
2024/01/03 12:31:42;;;;;;;;;;;23.90;46.50;;;;;;7397242;19;3731;-74
2024/01/03 12:34:08;;;;;;;;;;;23.80;47.10;;;;;;7398666;19;1278;-74
2024/01/03 12:36:34;;;;;;;;;;;23.80;46.50;;;;;;7396526;19;2919;-74
2024/01/03 12:38:59;;;;;;;;;;;23.90;46.50;;;;;;7400074;19;1315;-74
2024/01/03 12:41:25;;;;;;;;;;;23.90;46.40;;;;;;7397159;19;3707;-75
2024/01/03 12:43:50;;;;;;;;;;;23.90;46.40;;;;;;7393036;19;3716;-74
2024/01/03 12:46:16;;;;;;;;;;;23.90;46.30;;;;;;7399179;19;3243;-74
2024/01/03 12:48:41;;;;;;;;;;;23.80;46.40;;;;;;7397886;19;1854;-75
2024/01/03 12:51:06;;;;;;;;;;;23.80;46.40;;;;;;7394433;19;2871;-74
2024/01/03 12:53:32;;;;;;;;;;;23.90;46.40;;;;;;7398182;19;3277;-74
2024/01/03 12:55:57;;;;;;;;;;;23.90;46.20;;;;;;7398105;19;3954;-74
2024/01/03 12:58:23;;;;;;;;;;;23.90;46.20;;;;;;7394026;19;2938;-74
2024/01/03 13:00:48;;;;;;;;;;;23.90;46.30;;;;;;7395949;19;3413;-75
2024/01/03 13:03:14;;;;;;;;;;;23.90;46.30;;;;;;7399142;19;1466;-73
2024/01/03 13:05:39;;;;;;;;;;;23.90;46.30;;;;;;7396282;19;2864;-75
2024/01/03 13:08:05;;;;;;;;;;;23.90;46.30;;;;;;7395382;19;2982;-74
2024/01/03 13:10:30;;;;;;;;;;;24.00;46.30;;;;;;7394460;19;2939;-75
2024/01/03 13:12:56;;;;;;;;;;;24.00;46.70;;;;;;7393434;19;3428;-74
2024/01/03 13:15:21;;;;;;;;;;;24.00;46.10;;;;;;7399583;19;1478;-75
2024/01/03 13:17:47;;;;;;;;;;;24.00;46.10;;;;;;7392675;19;2899;-75
2024/01/03 13:20:15;;;;;;;;;;;24.10;46.00;;;;;;7400703;19;1199;-75
2024/01/03 13:22:40;;;;;;;;;;;24.10;45.90;;;;;;7398096;19;1926;-74
2024/01/03 13:25:06;;;;;;;;;;;24.00;45.90;;;;;;7394708;19;3329;-75
2024/01/03 13:27:31;;;;;;;;;;;23.90;46.10;;;;;;7397828;19;3178;-74
2024/01/03 13:29:57;;;;;;;;;;;23.90;46.30;;;;;;7398101;19;1570;-74
2024/01/03 13:32:22;;;;;;;;;;;23.90;46.40;;;;;;7393325;19;6034;-74
2024/01/03 13:34:48;;;;;;;;;;;23.90;46.30;;;;;;7393520;19;3464;-74
2024/01/03 13:37:13;;;;;;;;;;;23.90;46.30;;;;;;7391949;19;3149;-74
2024/01/03 13:39:39;;;;;;;;;;;23.90;46.30;;;;;;7395023;19;3721;-74
2024/01/03 13:42:06;;;;;;;;;;;23.90;46.20;;;;;;7381966;19;3921;-74
2024/01/03 13:44:31;;;;;;;;;;;23.90;46.30;;;;;;7390641;19;4575;-74
2024/01/03 13:46:57;;;;;;;;;;;24.00;46.40;;;;;;7395886;19;4560;-74
2024/01/03 13:49:22;;;;;;;;;;;24.00;46.50;;;;;;7391354;19;4573;-74
2024/01/03 13:51:51;;;;;;;;;;;24.00;46.40;;;;;;7392698;19;6154;-74
2024/01/03 13:54:16;;;;;;;;;;;24.00;46.30;;;;;;7394408;19;4715;-74
2024/01/03 13:56:42;;;;;;;;;;;24.00;46.30;;;;;;7390602;19;5115;-75
2024/01/03 13:59:10;;;;;;;;;;;24.00;46.30;;;;;;7394929;19;2720;-74
2024/01/03 14:01:36;;;;;;;;;;;24.00;47.10;;;;;;7390680;19;4711;-74
2024/01/03 14:04:01;;;;;;;;;;;24.00;46.30;;;;;;7393959;19;2931;-74
2024/01/03 14:06:27;;;;;;;;;;;24.00;46.20;;;;;;7392720;19;3543;-74
2024/01/03 14:08:52;;;;;;;;;;;24.10;46.30;;;;;;7393681;19;2596;-74
2024/01/03 14:11:21;;;;;;;;;;;24.10;46.10;;;;;;7391041;19;3352;-74
2024/01/03 14:13:47;;;;;;;;;;;24.10;46.10;;;;;;7395896;19;1543;-75
2024/01/03 14:16:12;;;;;;;;;;;24.10;46.10;;;;;;7394111;19;3603;-74
2024/01/03 14:18:38;;;;;;;;;;;24.10;46.20;;;;;;7394403;19;3057;-75
2024/01/03 14:21:07;;;;;;;;;;;24.00;46.30;;;;;;7395373;19;1681;-74
2024/01/03 14:23:33;;;;;;;;;;;24.00;46.40;;;;;;7392426;19;2864;-75
2024/01/03 14:25:58;;;;;;;;;;;24.00;46.40;;;;;;7394075;19;3230;-75